createdAt,value
2022-08-17T00:02:09.848Z,9.43
2022-08-17T00:04:50.648Z,9.20
2022-08-17T00:07:17.391Z,8.87
2022-08-17T00:09:44.026Z,9.20
2022-08-17T00:12:40.666Z,10.03
2022-08-17T00:14:57.293Z,9.80
2022-08-17T00:17:24.059Z,9.53
2022-08-17T00:19:50.645Z,9.73
2022-08-17T00:22:34.647Z,9.90
2022-08-17T00:25:07.256Z,10.07
2022-08-17T00:27:34.487Z,10.23
2022-08-17T00:30:01.348Z,9.13
2022-08-17T00:33:12.190Z,8.37
2022-08-17T00:35:18.247Z,8.57
2022-08-17T00:37:44.919Z,8.63
2022-08-17T00:40:14.453Z,7.63
2022-08-17T00:42:42.680Z,7.33
2022-08-17T00:45:13.334Z,7.07
2022-08-17T00:47:40.591Z,7.27
2022-08-17T00:50:10.603Z,7.83
2022-08-17T00:52:47.589Z,7.60
2022-08-17T00:55:14.697Z,6.97
2022-08-17T00:57:51.265Z,8.20
2022-08-17T01:00:28.046Z,8.10
2022-08-17T01:03:00.122Z,8.53
2022-08-17T01:05:29.441Z,7.57
2022-08-17T01:07:56.847Z,7.87
2022-08-17T01:10:59.305Z,8.77
2022-08-17T01:13:18.010Z,8.43
2022-08-17T01:15:59.465Z,8.33
2022-08-17T01:18:27.238Z,8.93
2022-08-17T01:20:58.569Z,10.70
2022-08-17T01:23:27.465Z,9.93
2022-08-17T01:25:57.837Z,11.17
2022-08-17T01:28:52.449Z,10.53
2022-08-17T01:31:14.769Z,10.93
2022-08-17T01:33:41.777Z,10.70
2022-08-17T01:36:08.789Z,10.00
2022-08-17T01:38:36.990Z,9.90
2022-08-17T01:41:07.853Z,10.17
2022-08-17T01:43:53.718Z,9.70
2022-08-17T01:46:28.162Z,10.17
2022-08-17T01:48:57.219Z,11.27
2022-08-17T01:51:27.582Z,9.50
2022-08-17T01:53:58.222Z,9.70
2022-08-17T01:56:26.857Z,9.37
2022-08-17T01:58:54.094Z,9.10
2022-08-17T02:01:23.873Z,9.20
2022-08-17T02:03:53.231Z,9.70
2022-08-17T02:06:27.503Z,10.30
2022-08-17T02:09:02.723Z,10.63
2022-08-17T02:11:32.419Z,10.53
2022-08-17T02:14:03.433Z,10.27
2022-08-17T02:16:36.850Z,9.87
2022-08-17T02:19:08.372Z,10.00
2022-08-17T02:21:36.754Z,10.43
2022-08-17T02:24:04.911Z,9.97
2022-08-17T02:26:31.578Z,10.13
2022-08-17T02:28:58.194Z,9.77
2022-08-17T02:31:24.843Z,9.50
2022-08-17T02:34:00.389Z,9.30
2022-08-17T02:36:31.015Z,9.10
2022-08-17T02:38:58.461Z,9.07
2022-08-17T02:41:25.065Z,9.37
2022-08-17T02:43:53.085Z,9.97
2022-08-17T02:46:19.735Z,8.67
2022-08-17T02:48:46.408Z,8.70
2022-08-17T02:51:13.097Z,9.10
2022-08-17T02:53:39.706Z,8.53
2022-08-17T02:56:06.696Z,8.93
2022-08-17T02:58:35.292Z,10.70
2022-08-17T03:01:05.026Z,9.33
2022-08-17T03:03:31.941Z,9.70
2022-08-17T03:05:58.553Z,10.37
2022-08-17T03:08:25.441Z,9.77
2022-08-17T03:10:52.548Z,10.13
2022-08-17T03:13:19.997Z,9.70
2022-08-17T03:15:48.351Z,10.20
2022-08-17T03:18:25.066Z,10.40
2022-08-17T03:20:59.623Z,10.47
2022-08-17T03:23:29.709Z,10.20
2022-08-17T03:25:57.781Z,10.30
2022-08-17T03:28:24.917Z,10.40
2022-08-17T03:30:52.100Z,10.13
2022-08-17T03:33:19.486Z,10.10
2022-08-17T03:35:46.804Z,10.60
2022-08-17T03:38:15.853Z,10.20
2022-08-17T03:40:56.569Z,11.00
2022-08-17T03:43:27.671Z,10.43
2022-08-17T03:46:26.907Z,10.40
2022-08-17T03:49:17.870Z,10.87
2022-08-17T03:52:03.434Z,10.63
2022-08-17T03:54:48.530Z,10.20
2022-08-17T03:57:15.223Z,10.50
2022-08-17T03:59:42.062Z,9.77
2022-08-17T04:02:21.054Z,10.20
2022-08-17T04:04:50.798Z,9.43
2022-08-17T04:07:23.330Z,10.17
2022-08-17T04:09:50.138Z,9.73
2022-08-17T04:12:19.230Z,9.63
2022-08-17T04:14:53.381Z,9.10
2022-08-17T04:17:24.038Z,9.90
2022-08-17T04:19:50.737Z,9.43
2022-08-17T04:22:30.823Z,8.97
2022-08-17T04:25:16.932Z,8.33
2022-08-17T04:27:43.742Z,8.03
2022-08-17T04:30:11.187Z,7.30
2022-08-17T04:33:13.932Z,8.03
2022-08-17T04:35:43.161Z,8.23
2022-08-17T04:38:14.019Z,7.33
2022-08-17T04:40:59.184Z,7.07
2022-08-17T04:43:28.157Z,6.53
2022-08-17T04:46:00.971Z,7.17
2022-08-17T04:48:36.928Z,6.53
2022-08-17T04:51:09.515Z,6.23
2022-08-17T04:53:36.253Z,6.00
2022-08-17T04:56:03.608Z,6.80
2022-08-17T04:58:30.215Z,7.17
2022-08-17T05:00:57.046Z,6.77
2022-08-17T05:03:24.357Z,6.53
2022-08-17T05:05:51.110Z,7.50
2022-08-17T05:08:19.918Z,7.70
2022-08-17T05:10:47.926Z,7.43
2022-08-17T05:13:23.891Z,6.53
2022-08-17T05:15:57.969Z,6.97
2022-08-17T05:18:25.456Z,7.40
2022-08-17T05:20:52.810Z,7.57
2022-08-17T05:23:22.080Z,7.50
2022-08-17T05:25:51.281Z,7.13
2022-08-17T05:28:23.528Z,7.43
2022-08-17T05:30:55.467Z,7.03
2022-08-17T05:33:25.294Z,7.00
2022-08-17T05:35:54.725Z,6.97
2022-08-17T05:38:23.618Z,7.57
2022-08-17T05:40:50.756Z,7.40
2022-08-17T05:43:22.283Z,7.47
2022-08-17T05:46:16.582Z,6.97
2022-08-17T05:48:49.357Z,6.93
2022-08-17T05:51:31.018Z,7.57
2022-08-17T05:54:17.526Z,7.40
2022-08-17T05:56:56.069Z,7.33
2022-08-17T05:59:48.125Z,7.50
2022-08-17T06:02:24.328Z,6.80
2022-08-17T06:04:56.643Z,7.40
2022-08-17T06:07:37.132Z,8.00
2022-08-17T06:10:18.278Z,7.57
2022-08-17T06:13:02.963Z,7.63
2022-08-17T06:15:56.235Z,8.07
2022-08-17T06:18:28.427Z,7.03
2022-08-17T06:21:01.163Z,7.10
2022-08-17T06:23:34.723Z,7.33
2022-08-17T06:26:12.622Z,7.47
2022-08-17T06:28:49.331Z,7.33
2022-08-17T06:31:22.458Z,6.80
2022-08-17T06:33:49.613Z,7.30
2022-08-17T06:36:37.539Z,7.43
2022-08-17T06:39:10.324Z,7.50
2022-08-17T06:42:07.114Z,7.67
2022-08-17T06:44:51.031Z,7.80
2022-08-17T06:47:47.421Z,8.23
2022-08-17T06:50:19.358Z,7.50
2022-08-17T06:53:04.265Z,7.57
2022-08-17T06:55:53.206Z,7.70
2022-08-17T06:58:23.410Z,7.67
2022-08-17T07:00:59.544Z,7.80
2022-08-17T07:03:53.440Z,8.00
2022-08-17T07:06:27.703Z,7.67
2022-08-17T07:09:08.594Z,8.20
2022-08-17T07:11:51.752Z,8.23
2022-08-17T07:14:43.101Z,7.73
2022-08-17T07:17:15.666Z,7.57
2022-08-17T07:19:45.387Z,8.17
2022-08-17T07:22:50.586Z,8.03
2022-08-17T07:25:27.479Z,7.37
2022-08-17T07:27:56.259Z,7.67
2022-08-17T07:30:54.533Z,8.40
2022-08-17T07:33:25.625Z,8.60
2022-08-17T07:35:52.793Z,8.40
2022-08-17T07:38:25.028Z,7.83
2022-08-17T07:41:02.413Z,8.23
2022-08-17T07:43:33.754Z,8.48
2022-08-17T07:46:42.101Z,7.83
2022-08-17T07:49:14.582Z,7.78
2022-08-17T07:51:57.164Z,7.85
2022-08-17T07:54:39.533Z,8.23
2022-08-17T07:57:12.662Z,8.32
2022-08-17T07:59:43.283Z,8.18
2022-08-17T08:02:31.695Z,8.38
2022-08-17T08:05:02.565Z,8.73
2022-08-17T08:07:39.592Z,8.32
2022-08-17T08:10:27.914Z,8.48
2022-08-17T08:13:21.821Z,8.55
2022-08-17T08:15:53.662Z,9.23
2022-08-17T08:18:54.269Z,8.98
2022-08-17T08:21:33.020Z,8.32
2022-08-17T08:24:37.153Z,8.32
2022-08-17T08:27:35.812Z,9.38
2022-08-17T08:30:10.277Z,9.57
2022-08-17T08:32:50.402Z,9.27
2022-08-17T08:35:31.891Z,8.70
2022-08-17T08:38:28.326Z,9.13
2022-08-17T08:41:07.407Z,8.97
2022-08-17T08:43:41.130Z,8.93
2022-08-17T08:46:35.378Z,9.03
2022-08-17T08:50:02.794Z,8.73
2022-08-17T08:53:00.221Z,9.40
2022-08-17T08:55:41.499Z,11.00
2022-08-17T08:58:31.616Z,10.93
2022-08-17T09:01:08.824Z,9.83
2022-08-17T09:04:21.454Z,10.73
2022-08-17T09:07:06.948Z,11.60
2022-08-17T09:10:13.925Z,11.50
2022-08-17T09:12:58.732Z,11.47
2022-08-17T09:15:32.027Z,11.10
2022-08-17T09:19:01.848Z,11.93
2022-08-17T09:20:57.309Z,11.53
2022-08-17T09:23:36.265Z,12.23
2022-08-17T09:26:31.551Z,12.07
2022-08-17T09:29:05.464Z,12.40
2022-08-17T09:31:47.023Z,12.90
2022-08-17T09:34:29.615Z,12.33
2022-08-17T09:37:29.927Z,12.30
2022-08-17T09:40:21.388Z,13.57
2022-08-17T09:42:53.362Z,12.37
2022-08-17T09:45:40.849Z,12.97
2022-08-17T09:48:48.202Z,14.17
2022-08-17T09:51:36.725Z,13.93
2022-08-17T09:54:37.069Z,14.27
2022-08-17T09:57:31.376Z,13.53
2022-08-17T10:00:15.580Z,14.97
2022-08-17T10:02:54.362Z,13.87
2022-08-17T10:05:46.853Z,14.17
2022-08-17T10:08:35.653Z,15.87
2022-08-17T10:11:18.881Z,15.47
2022-08-17T10:14:12.530Z,13.73
2022-08-17T10:16:59.151Z,13.90
2022-08-17T10:19:40.129Z,13.60
2022-08-17T10:22:51.174Z,14.13
2022-08-17T10:25:54.080Z,12.73
2022-08-17T10:28:28.812Z,13.30
2022-08-17T10:31:23.451Z,15.03
2022-08-17T10:33:56.744Z,13.90
2022-08-17T10:36:27.127Z,15.17
2022-08-17T10:39:52.671Z,14.33
2022-08-17T10:42:36.546Z,16.10
2022-08-17T10:45:17.988Z,16.73
2022-08-17T10:48:05.729Z,15.90
2022-08-17T10:50:55.993Z,16.63
2022-08-17T10:53:31.708Z,17.20
2022-08-17T10:56:13.666Z,17.33
2022-08-17T10:58:55.026Z,17.43
2022-08-17T11:01:33.962Z,17.43
2022-08-17T11:04:11.610Z,17.07
2022-08-17T11:06:49.532Z,16.90
2022-08-17T11:10:00.281Z,16.73
2022-08-17T11:12:38.081Z,15.07
2022-08-17T11:15:17.651Z,14.00
2022-08-17T11:18:15.822Z,14.03
2022-08-17T11:21:16.418Z,13.13
2022-08-17T11:24:18.263Z,13.00
2022-08-17T11:27:22.070Z,13.03
2022-08-17T11:29:59.484Z,12.23
2022-08-17T11:32:37.338Z,11.90
2022-08-17T11:35:18.936Z,12.33
2022-08-17T11:38:25.693Z,11.17
2022-08-17T11:41:16.940Z,11.27
2022-08-17T11:44:21.237Z,11.40
2022-08-17T11:47:17.092Z,12.37
2022-08-17T11:50:07.995Z,13.73
2022-08-17T11:52:39.542Z,14.40
2022-08-17T11:55:33.945Z,12.73
2022-08-17T11:58:04.430Z,14.80
2022-08-17T12:00:46.021Z,14.03
2022-08-17T12:03:23.456Z,14.97
2022-08-17T12:05:53.365Z,14.93
2022-08-17T12:08:22.618Z,13.53
2022-08-17T12:10:52.707Z,13.83
2022-08-17T12:13:19.778Z,14.50
2022-08-17T12:15:50.091Z,15.07
2022-08-17T12:18:30.793Z,16.10
2022-08-17T12:21:17.682Z,16.23
2022-08-17T12:23:57.425Z,15.77
2022-08-17T12:26:31.844Z,16.70
2022-08-17T12:29:05.927Z,16.83
2022-08-17T12:31:45.038Z,17.50
2022-08-17T12:34:26.795Z,17.03
2022-08-17T12:37:04.579Z,19.07
2022-08-17T12:39:33.987Z,19.43
2022-08-17T12:42:02.864Z,20.47
2022-08-17T12:44:36.310Z,21.47
2022-08-17T12:47:21.989Z,21.43
2022-08-17T12:49:52.596Z,22.60
2022-08-17T12:52:28.241Z,22.00
2022-08-17T12:54:54.820Z,23.97
2022-08-17T12:57:29.183Z,23.77
2022-08-17T13:00:07.615Z,25.17
2022-08-17T13:02:45.212Z,25.50
2022-08-17T13:05:24.165Z,24.27
2022-08-17T13:07:53.081Z,27.10
2022-08-17T13:10:30.047Z,26.23
2022-08-17T13:13:04.886Z,24.73
2022-08-17T13:15:44.881Z,24.17
2022-08-17T13:18:33.658Z,22.23
2022-08-17T13:21:00.982Z,22.87
2022-08-17T13:23:29.379Z,23.20
2022-08-17T13:26:02.373Z,22.50
2022-08-17T13:28:30.738Z,22.20
2022-08-17T13:31:28.055Z,22.00
2022-08-17T13:34:19.345Z,22.90
2022-08-17T13:36:47.942Z,24.40
2022-08-17T13:39:21.459Z,23.77
2022-08-17T13:41:50.226Z,23.43
2022-08-17T13:44:37.601Z,22.70
2022-08-17T13:47:15.615Z,22.38
2022-08-17T13:49:48.772Z,20.48
2022-08-17T13:52:40.610Z,19.40
2022-08-17T13:55:19.827Z,20.42
2022-08-17T13:58:05.040Z,17.95
2022-08-17T14:00:36.189Z,14.02
2022-08-17T14:03:04.806Z,14.60
2022-08-17T14:05:32.382Z,17.20
2022-08-17T14:08:02.098Z,13.88
2022-08-17T14:10:35.715Z,14.30
2022-08-17T14:13:02.651Z,15.20
2022-08-17T14:15:55.349Z,13.02
2022-08-17T14:18:17.998Z,14.38
2022-08-17T14:21:02.495Z,15.77
2022-08-17T14:23:31.804Z,15.32
2022-08-17T14:25:58.680Z,14.40
2022-08-17T14:28:25.433Z,15.73
2022-08-17T14:30:55.372Z,15.23
2022-08-17T14:33:24.556Z,15.25
2022-08-17T14:35:54.767Z,12.40
2022-08-17T14:38:21.392Z,11.35
2022-08-17T14:40:48.563Z,12.82
2022-08-17T14:43:15.755Z,13.80
2022-08-17T14:45:43.321Z,13.65
2022-08-17T14:48:10.071Z,8.90
2022-08-17T14:50:40.540Z,10.77
2022-08-17T14:53:09.974Z,11.43
2022-08-17T14:55:39.650Z,11.20
2022-08-17T14:58:07.513Z,11.60
2022-08-17T15:00:34.348Z,10.35
2022-08-17T15:03:01.849Z,11.32
2022-08-17T15:05:33.480Z,7.00
2022-08-17T15:08:01.080Z,8.10
2022-08-17T15:10:29.250Z,7.65
2022-08-17T15:12:57.170Z,7.82
2022-08-17T15:15:24.016Z,9.32
2022-08-17T15:17:51.450Z,9.30
2022-08-17T15:20:21.067Z,8.70
2022-08-17T15:22:49.638Z,8.05
2022-08-17T15:25:19.032Z,9.25
2022-08-17T15:27:45.992Z,9.10
2022-08-17T15:30:13.249Z,9.45
2022-08-17T15:32:51.216Z,9.88
2022-08-17T15:35:27.338Z,8.43
2022-08-17T15:38:10.578Z,7.25
2022-08-17T15:40:43.247Z,7.53
2022-08-17T15:43:13.150Z,7.57
2022-08-17T15:45:40.700Z,8.25
2022-08-17T15:48:07.957Z,6.97
2022-08-17T15:50:35.864Z,7.07
2022-08-17T15:53:03.569Z,8.25
2022-08-17T15:55:31.264Z,7.55
2022-08-17T15:57:58.387Z,6.65
2022-08-17T16:00:28.271Z,6.88
2022-08-17T16:03:15.106Z,5.80
2022-08-17T16:05:42.969Z,6.22
2022-08-17T16:08:11.226Z,5.63
2022-08-17T16:10:38.031Z,6.40
2022-08-17T16:13:04.847Z,6.00
2022-08-17T16:15:31.959Z,6.25
2022-08-17T16:17:59.113Z,5.68
2022-08-17T16:20:26.510Z,5.50
2022-08-17T16:22:54.652Z,5.95
2022-08-17T16:25:40.307Z,6.13
2022-08-17T16:28:16.942Z,6.03
2022-08-17T16:30:44.398Z,5.03
2022-08-17T16:33:12.168Z,5.00
2022-08-17T16:35:39.628Z,5.40
2022-08-17T16:38:07.318Z,5.47
2022-08-17T16:40:36.034Z,5.93
2022-08-17T16:43:03.891Z,5.75
2022-08-17T16:45:40.321Z,5.55
2022-08-17T16:48:08.138Z,6.25
2022-08-17T16:50:35.509Z,6.15
2022-08-17T16:53:11.585Z,5.50
2022-08-17T16:55:38.440Z,5.50
2022-08-17T16:58:06.336Z,5.18
2022-08-17T17:00:33.750Z,5.75
2022-08-17T17:03:18.129Z,4.93
2022-08-17T17:06:13.730Z,5.93
2022-08-17T17:08:48.329Z,5.40
2022-08-17T17:11:43.982Z,6.18
2022-08-17T17:14:16.778Z,5.70
2022-08-17T17:16:57.616Z,6.25
2022-08-17T17:19:45.386Z,6.13
2022-08-17T17:22:23.359Z,5.93
2022-08-17T17:25:27.877Z,6.15
2022-08-17T17:28:11.123Z,6.18
2022-08-17T17:30:57.618Z,5.85
2022-08-17T17:33:46.270Z,5.40
2022-08-17T17:36:41.952Z,5.70
2022-08-17T17:39:27.962Z,5.75
2022-08-17T17:41:57.739Z,6.38
2022-08-17T17:44:32.983Z,5.90
2022-08-17T17:47:01.970Z,6.50
2022-08-17T17:49:36.982Z,6.38
2022-08-17T17:52:30.542Z,6.15
2022-08-17T17:55:18.961Z,6.03
2022-08-17T17:58:00.592Z,5.97
2022-08-17T18:00:53.124Z,6.25
2022-08-17T18:03:50.689Z,6.20
2022-08-17T18:06:46.366Z,6.60
2022-08-17T18:09:29.099Z,6.70
2022-08-17T18:12:11.350Z,6.70
2022-08-17T18:14:55.136Z,7.97
2022-08-17T18:17:22.155Z,8.00
2022-08-17T18:19:48.905Z,7.78
2022-08-17T18:22:19.322Z,7.40
2022-08-17T18:24:49.472Z,8.23
2022-08-17T18:27:33.014Z,9.43
2022-08-17T18:30:19.959Z,9.00
2022-08-17T18:32:46.945Z,9.57
2022-08-17T18:35:14.372Z,11.52
2022-08-17T18:38:03.945Z,13.43
2022-08-17T18:40:34.621Z,14.10
2022-08-17T18:43:12.605Z,14.13
2022-08-17T18:45:49.489Z,14.23
2022-08-17T18:48:30.727Z,14.73
2022-08-17T18:51:21.164Z,14.60
2022-08-17T18:54:12.976Z,14.40
2022-08-17T18:56:59.492Z,15.67
2022-08-17T18:59:44.314Z,14.77
2022-08-17T19:02:23.143Z,16.60
2022-08-17T19:05:13.176Z,15.67
2022-08-17T19:07:43.816Z,17.07
2022-08-17T19:10:23.000Z,17.60
2022-08-17T19:13:12.666Z,16.70
2022-08-17T19:16:14.586Z,17.90
2022-08-17T19:18:39.269Z,18.53
2022-08-17T19:21:21.465Z,18.47
2022-08-17T19:24:11.363Z,19.50
2022-08-17T19:26:53.955Z,19.60
2022-08-17T19:29:51.502Z,19.80
2022-08-17T19:32:24.246Z,20.73
2022-08-17T19:34:51.138Z,22.87
2022-08-17T19:37:17.707Z,22.33
2022-08-17T19:40:04.779Z,23.43
2022-08-17T19:42:31.400Z,25.03
2022-08-17T19:45:24.275Z,26.57
2022-08-17T19:48:03.806Z,26.17
2022-08-17T19:50:43.590Z,28.30
2022-08-17T19:53:36.682Z,28.40
2022-08-17T19:56:11.619Z,30.10
2022-08-17T19:58:48.223Z,29.00
2022-08-17T20:01:40.645Z,28.60
2022-08-17T20:04:16.213Z,27.73
2022-08-17T20:06:49.222Z,29.87
2022-08-17T20:09:36.830Z,30.43
2022-08-17T20:12:11.409Z,33.23
2022-08-17T20:14:53.409Z,31.93
2022-08-17T20:17:28.357Z,36.87
2022-08-17T20:20:19.675Z,33.60
2022-08-17T20:23:20.594Z,33.43
2022-08-17T20:25:59.049Z,34.63
2022-08-17T20:28:30.297Z,34.17
2022-08-17T20:30:58.419Z,36.57
2022-08-17T20:33:36.876Z,38.40
2022-08-17T20:36:21.664Z,39.87
2022-08-17T20:38:57.179Z,42.30
2022-08-17T20:41:29.071Z,42.13
2022-08-17T20:43:58.838Z,46.03
2022-08-17T20:46:40.463Z,45.50
2022-08-17T20:49:44.522Z,45.53
2022-08-17T20:52:32.694Z,42.10
2022-08-17T20:54:59.366Z,40.63
2022-08-17T20:57:31.977Z,41.73
2022-08-17T21:00:16.413Z,45.47
2022-08-17T21:02:49.466Z,46.43
2022-08-17T21:05:34.278Z,49.80
2022-08-17T21:08:14.569Z,50.03
2022-08-17T21:10:45.422Z,49.07
2022-08-17T21:13:13.431Z,50.57
2022-08-17T21:15:51.677Z,49.30
2022-08-17T21:18:40.041Z,47.67
2022-08-17T21:21:32.762Z,46.60
2022-08-17T21:24:14.177Z,45.70
2022-08-17T21:27:19.236Z,46.00
2022-08-17T21:30:08.533Z,46.30
2022-08-17T21:32:38.969Z,50.00
2022-08-17T21:35:12.453Z,50.93
2022-08-17T21:37:41.888Z,50.07
2022-08-17T21:40:18.023Z,53.67
2022-08-17T21:43:25.102Z,55.50
2022-08-17T21:46:04.301Z,55.87
2022-08-17T21:48:41.437Z,56.60
2022-08-17T21:51:13.821Z,60.50
2022-08-17T21:53:47.537Z,61.77
2022-08-17T21:56:41.590Z,62.43
2022-08-17T21:59:24.373Z,63.53
2022-08-17T22:02:02.551Z,64.87
2022-08-17T22:04:32.486Z,65.23
2022-08-17T22:07:01.721Z,70.07
2022-08-17T22:09:31.992Z,71.50
2022-08-17T22:11:58.688Z,70.47
2022-08-17T22:14:55.154Z,71.83
2022-08-17T22:17:31.198Z,72.03
2022-08-17T22:20:04.402Z,71.73
2022-08-17T22:23:07.058Z,75.03
2022-08-17T22:25:37.264Z,78.03
2022-08-17T22:28:07.481Z,78.13
2022-08-17T22:30:38.114Z,81.57
2022-08-17T22:33:34.833Z,82.20
2022-08-17T22:36:22.536Z,82.43
2022-08-17T22:38:50.681Z,79.17
2022-08-17T22:41:19.986Z,81.93
2022-08-17T22:43:48.155Z,83.87
2022-08-17T22:46:15.659Z,80.27
2022-08-17T22:48:51.031Z,82.00
2022-08-17T22:51:25.550Z,82.67
2022-08-17T22:54:14.306Z,80.50
2022-08-17T22:57:18.846Z,81.20
2022-08-17T22:59:51.486Z,82.20
2022-08-17T23:02:26.051Z,81.07
2022-08-17T23:04:57.576Z,82.87
2022-08-17T23:07:24.274Z,82.10
2022-08-17T23:09:52.217Z,80.53
2022-08-17T23:12:26.212Z,85.07
2022-08-17T23:14:58.452Z,86.47
2022-08-17T23:17:25.068Z,88.77
2022-08-17T23:19:51.711Z,84.83
2022-08-17T23:22:18.426Z,86.43
2022-08-17T23:24:48.783Z,84.77
2022-08-17T23:27:15.586Z,88.47
2022-08-17T23:29:42.336Z,88.73
2022-08-17T23:32:15.066Z,87.00
2022-08-17T23:34:44.550Z,88.57
2022-08-17T23:37:12.047Z,86.63
2022-08-17T23:39:39.740Z,87.60
2022-08-17T23:42:09.388Z,89.07
2022-08-17T23:44:37.897Z,88.40
2022-08-17T23:47:05.588Z,86.00
2022-08-17T23:49:32.374Z,85.33
2022-08-17T23:52:01.950Z,86.00
2022-08-17T23:54:33.531Z,84.30
2022-08-17T23:57:04.878Z,81.57
2022-08-17T23:59:33.859Z,79.40
